This is the latest recevied weather packets stored in our database for station/object GW1498. If no packets are shown the sender has not sent any weather packets the latest 10 day(s).
| Time | Temp. | Humidity | Pressure | Rain* | Wind** | Luminosity | Snow |
|---|---|---|---|---|---|---|---|
| 1777848143 | 11.11° C | 38% | 1015.2 hPa | 0 mm | - | - | - |
| 1777843670 | 11.67° C | 36% | 1015.2 hPa | 0 mm | - | - | - |
| 1777842943 | 11.67° C | 36% | 1015.2 hPa | 0 mm | - | - | - |
| 1777840754 | 11.11° C | 40% | 1015.5 hPa | 0 mm | - | - | - |
| 1777837175 | 11.11° C | 36% | 1016.5 hPa | 0 mm | - | - | - |
| 1777829958 | 8.89° C | 43% | 1017.6 hPa | 0 mm | - | - | - |
| 1777824410 | 7.22° C | 48% | 1017.9 hPa | 0 mm | - | - | - |
| 1777823677 | 6.67° C | 46% | 1018.2 hPa | 0 mm | - | - | - |
| 1777819884 | 5° C | 55% | 1018.2 hPa | 0 mm | - | - | - |
| 1777819548 | 5° C | 55% | 1018.2 hPa | 0 mm | - | - | - |
| 1777819152 | 3.89° C | 61% | 1018.2 hPa | 0 mm | - | - | - |
| 1777815222 | 2.22° C | 73% | 1017.9 hPa | 0 mm | - | - | - |
| 1777814854 | 1.67° C | 77% | 1017.9 hPa | 0 mm | - | - | - |
| 1777813793 | 1.11° C | 82% | 1017.9 hPa | 0 mm | - | - | - |
| 1777811612 | 0° C | 89% | 1017.9 hPa | 0 mm | - | - | - |
| 1777809831 | -0.56° C | 92% | 1017.2 hPa | 0 mm | - | - | - |
| 1777807091 | -1.11° C | 93% | 1016.9 hPa | 0 mm | - | - | - |
| 1777804936 | -1.11° C | 92% | 1016.2 hPa | 0 mm | - | - | - |
| 1777802774 | -1.11° C | 90% | 1015.9 hPa | 0 mm | - | - | - |
| 1777798814 | 0° C | 89% | 1015.5 hPa | 0 mm | - | - | - |
| 1777796837 | 0° C | 87% | 1015.5 hPa | 0 mm | - | - | - |
| 1777795789 | 0.56° C | 87% | 1015.2 hPa | 0 mm | - | - | - |
| 1777791983 | 0.56° C | 86% | 1014.9 hPa | 0 mm | - | - | - |
| 1777789092 | 1.11° C | 84% | 1014.9 hPa | 0 mm | - | - | - |
| 1777786957 | 0.56° C | 83% | 1014.9 hPa | 0 mm | - | - | - |
* Rain since midnight (hover to see other rain measurements)
** Current wind speed in m/s (hover to see current wind gust speed)